Terminal Aerodrome Forecast
Issued by NWS

Home | Current Version | Previous Version | Text Only | Print | Product List | Glossary On
Versions: 1 2 3 4 5 6 7 8 9 10 11 12 13 14 15 16 17 18 19 20
818
FTUS44 KEWX 182326
TAFSSF
TAF
KSSF 182326Z 1900/1924 13011KT P6SM FEW250
     FM190700 15004KT P6SM SCT015
     FM191500 17007KT P6SM FEW040 FEW250
     FM192100 13010KT P6SM FEW060 FEW250=

USA.gov is the U.S. government's official web portal to all federal, state and local government web resources and services.